^^
Station Historical Data
Daily Summary for March 27, 2020 Units:  English    Metric   Both
« Previous Day
Next Day »
Daily Weekly Monthly Yearly Custom
  High: Low: Average:
Temperature: 57.7 °F 30.6 °F 42.3 °F
Dew Point: 35.7 °F 23.5 °F 29.9 °F
Humidity: 92% 28% 67%
Wind Speed: 17.0mph 1.0mph 7.5mph
Wind Gust: 21.0mph - -
Wind- - South
Pressure: 29.79 in 29.69 in -
Precipitation: 0.00 in    
Historical Graphs
 
 
Tabular Data for March 27, 2020
Time Temperature Dew Point Pressure Wind Wind Speed Wind Gust Humidity Rainfall Rate (Hourly) solar Conditions
00:00 33.4 °F 29.1 °F 29.77 in South 5.0 mph 7.0 mph 84% 0.00 in 0.00 W/m2
00:05 33.4 °F 29.1 °F 29.77 in South 7.0 mph 8.0 mph 84% 0.00 in 0.00 W/m2
00:10 33.4 °F 29.1 °F 29.77 in South 5.0 mph 8.0 mph 84% 0.00 in 0.00 W/m2
00:15 33.3 °F 29.0 °F 29.77 in South 6.0 mph 8.0 mph 84% 0.00 in 0.00 W/m2
00:20 33.3 °F 29.3 °F 29.77 in South 5.0 mph 8.0 mph 85% 0.00 in 0.00 W/m2
00:25 33.3 °F 29.0 °F 29.77 in South 5.0 mph 8.0 mph 84% 0.00 in 0.00 W/m2
00:30 33.0 °F 28.4 °F 29.77 in SSE 5.0 mph 7.0 mph 83% 0.00 in 0.00 W/m2
00:35 32.6 °F 28.3 °F 29.78 in SSE 5.0 mph 5.0 mph 84% 0.00 in 0.00 W/m2
00:40 32.0 °F 27.7 °F 29.78 in SSE 5.0 mph 6.0 mph 84% 0.00 in 0.00 W/m2
00:45 31.5 °F 27.5 °F 29.78 in SSE 7.0 mph 9.0 mph 85% 0.00 in 0.00 W/m2
00:50 31.5 °F 27.8 °F 29.78 in South 5.0 mph 9.0 mph 86% 0.00 in 0.00 W/m2
00:55 31.5 °F 27.8 °F 29.78 in South 4.0 mph 8.0 mph 86% 0.00 in 0.00 W/m2
01:00 31.5 °F 28.1 °F 29.78 in South 6.0 mph 9.0 mph 87% 0.00 in 0.00 W/m2
01:05 31.4 °F 29.3 °F 29.78 in South 5.0 mph 9.0 mph 92% 0.00 in 0.00 W/m2
01:10 31.2 °F 27.5 °F 29.78 in South 7.0 mph 8.0 mph 86% 0.00 in 0.00 W/m2
01:15 31.2 °F 27.8 °F 29.78 in South 6.0 mph 9.0 mph 87% 0.00 in 0.00 W/m2
01:20 31.1 °F 27.4 °F 29.78 in SSE 6.0 mph 9.0 mph 86% 0.00 in 0.00 W/m2
01:25 30.7 °F 27.0 °F 29.78 in SSE 6.0 mph 8.0 mph 86% 0.00 in 0.00 W/m2
01:30 30.6 °F 27.2 °F 29.78 in SSE 6.0 mph 8.0 mph 87% 0.00 in 0.00 W/m2
01:35 30.6 °F 27.2 °F 29.78 in SSE 6.0 mph 9.0 mph 87% 0.00 in 0.00 W/m2
01:40 30.8 °F 27.7 °F 29.79 in South 7.0 mph 10.0 mph 88% 0.00 in 0.00 W/m2
01:45 30.9 °F 27.8 °F 29.79 in SSE 5.0 mph 10.0 mph 88% 0.00 in 0.00 W/m2
01:50 31.0 °F 27.9 °F 29.79 in SE 7.0 mph 9.0 mph 88% 0.00 in 0.00 W/m2
01:55 31.0 °F 27.6 °F 29.79 in SSE 5.0 mph 10.0 mph 87% 0.00 in 0.00 W/m2
02:00 31.0 °F 27.6 °F 29.79 in SSE 4.0 mph 10.0 mph 87% 0.00 in 0.00 W/m2
02:05 31.0 °F 27.9 °F 29.79 in SSE 8.0 mph 10.0 mph 88% 0.00 in 0.00 W/m2
02:10 31.3 °F 28.2 °F 29.79 in SSW 4.0 mph 10.0 mph 88% 0.00 in 0.00 W/m2
02:15 31.5 °F 28.4 °F 29.79 in South 5.0 mph 10.0 mph 88% 0.00 in 0.00 W/m2
02:20 31.7 °F 28.6 °F 29.79 in South 5.0 mph 10.0 mph 88% 0.00 in 0.00 W/m2
02:25 31.8 °F 28.7 °F 29.79 in South 6.0 mph 10.0 mph 88% 0.00 in 0.00 W/m2
02:30 31.9 °F 28.8 °F 29.79 in South 4.0 mph 10.0 mph 88% 0.00 in 0.00 W/m2
02:35 32.0 °F 28.8 °F 29.79 in South 5.0 mph 10.0 mph 88% 0.00 in 0.00 W/m2
02:40 32.1 °F 28.7 °F 29.79 in South 3.0 mph 8.0 mph 87% 0.00 in 0.00 W/m2
02:45 32.1 °F 28.9 °F 29.79 in SSE 7.0 mph 9.0 mph 88% 0.00 in 0.00 W/m2
02:50 32.3 °F 29.1 °F 29.78 in South 6.0 mph 9.0 mph 88% 0.00 in 0.00 W/m2
02:55 32.5 °F 29.3 °F 29.78 in SSW 6.0 mph 8.0 mph 88% 0.00 in 0.00 W/m2
03:00 32.6 °F 29.4 °F 29.78 in South 8.0 mph 8.0 mph 88% 0.00 in 0.00 W/m2
03:05 32.7 °F 29.5 °F 29.78 in South 5.0 mph 8.0 mph 88% 0.00 in 0.00 W/m2
03:10 32.8 °F 29.6 °F 29.78 in South 5.0 mph 8.0 mph 88% 0.00 in 0.00 W/m2
03:15 32.9 °F 29.7 °F 29.78 in SSW 5.0 mph 10.0 mph 88% 0.00 in 0.00 W/m2
03:20 33.1 °F 29.9 °F 29.78 in SSW 9.0 mph 14.0 mph 88% 0.00 in 0.00 W/m2
03:25 33.1 °F 29.9 °F 29.78 in South 5.0 mph 14.0 mph 88% 0.00 in 0.00 W/m2
03:30 33.2 °F 30.0 °F 29.78 in SSW 5.0 mph 11.0 mph 88% 0.00 in 0.00 W/m2
03:35 33.2 °F 30.0 °F 29.77 in SSW 2.0 mph 11.0 mph 88% 0.00 in 0.00 W/m2
03:40 33.3 °F 30.1 °F 29.77 in SSW 4.0 mph 10.0 mph 88% 0.00 in 0.00 W/m2
03:45 33.2 °F 30.0 °F 29.77 in South 10.0 mph 12.0 mph 88% 0.00 in 0.00 W/m2
03:50 33.2 °F 30.0 °F 29.77 in SSW 5.0 mph 12.0 mph 88% 0.00 in 0.00 W/m2
03:55 33.3 °F 30.1 °F 29.77 in SW 5.0 mph 9.0 mph 88% 0.00 in 0.00 W/m2
04:00 33.3 °F 30.1 °F 29.77 in South 3.0 mph 9.0 mph 88% 0.00 in 0.00 W/m2
04:05 33.3 °F 30.1 °F 29.77 in South 4.0 mph 9.0 mph 88% 0.00 in 0.00 W/m2
04:10 33.2 °F 30.0 °F 29.76 in South 4.0 mph 10.0 mph 88% 0.00 in 0.00 W/m2
04:15 33.3 °F 30.1 °F 29.76 in South 5.0 mph 13.0 mph 88% 0.00 in 0.00 W/m2
04:20 33.3 °F 30.1 °F 29.76 in SSW 9.0 mph 15.0 mph 88% 0.00 in 0.00 W/m2
04:25 33.3 °F 30.1 °F 29.76 in SSW 13.0 mph 15.0 mph 88% 0.00 in 0.00 W/m2
04:30 33.3 °F 30.1 °F 29.76 in South 11.0 mph 15.0 mph 88% 0.00 in 0.00 W/m2
04:35 33.4 °F 30.2 °F 29.76 in SSW 7.0 mph 16.0 mph 88% 0.00 in 0.00 W/m2
04:40 33.4 °F 30.2 °F 29.76 in South 6.0 mph 16.0 mph 88% 0.00 in 0.00 W/m2
04:45 33.4 °F 30.2 °F 29.76 in South 10.0 mph 15.0 mph 88% 0.00 in 0.00 W/m2
04:50 33.5 °F 30.6 °F 29.76 in South 12.0 mph 15.0 mph 89% 0.00 in 0.00 W/m2
04:55 33.5 °F 30.6 °F 29.75 in South 6.0 mph 15.0 mph 89% 0.00 in 0.00 W/m2
05:00 33.6 °F 30.7 °F 29.75 in SSW 6.0 mph 16.0 mph 89% 0.00 in 0.00 W/m2
05:05 33.6 °F 30.7 °F 29.75 in SSW 12.0 mph 16.0 mph 89% 0.00 in 0.00 W/m2
05:10 33.6 °F 30.7 °F 29.75 in SSW 10.0 mph 14.0 mph 89% 0.00 in 0.00 W/m2
05:15 33.5 °F 30.6 °F 29.75 in SSW 8.0 mph 15.0 mph 89% 0.00 in 0.00 W/m2
05:20 33.6 °F 30.7 °F 29.75 in South 7.0 mph 15.0 mph 89% 0.00 in 0.00 W/m2
05:25 33.5 °F 30.6 °F 29.75 in SSW 8.0 mph 15.0 mph 89% 0.00 in 0.00 W/m2
05:30 33.5 °F 30.6 °F 29.75 in SSW 7.0 mph 15.0 mph 89% 0.00 in 0.00 W/m2
05:35 33.5 °F 30.6 °F 29.75 in South 11.0 mph 19.0 mph 89% 0.00 in 0.00 W/m2
05:40 33.4 °F 30.5 °F 29.75 in SSW 9.0 mph 19.0 mph 89% 0.00 in 0.00 W/m2
05:45 33.3 °F 30.4 °F 29.75 in SSW 6.0 mph 18.0 mph 89% 0.00 in 0.00 W/m2
05:50 33.3 °F 30.4 °F 29.75 in South 7.0 mph 17.0 mph 89% 0.00 in 0.00 W/m2
05:55 33.3 °F 30.7 °F 29.75 in South 9.0 mph 17.0 mph 90% 0.00 in 0.00 W/m2
06:00 33.2 °F 30.6 °F 29.75 in South 13.0 mph 15.0 mph 90% 0.00 in 0.00 W/m2
06:05 33.3 °F 30.7 °F 29.75 in SSW 5.0 mph 14.0 mph 90% 0.00 in 0.00 W/m2
06:10 33.2 °F 30.6 °F 29.75 in SSW 3.0 mph 13.0 mph 90% 0.00 in 0.00 W/m2
06:15 33.2 °F 30.6 °F 29.75 in South 4.0 mph 11.0 mph 90% 0.00 in 0.00 W/m2
06:20 33.3 °F 30.7 °F 29.75 in SW 6.0 mph 12.0 mph 90% 0.00 in 0.00 W/m2
06:25 33.2 °F 30.6 °F 29.75 in South 5.0 mph 13.0 mph 90% 0.00 in 0.00 W/m2
06:30 33.2 °F 30.6 °F 29.75 in SSW 4.0 mph 13.0 mph 90% 0.00 in 0.00 W/m2
06:35 33.2 °F 30.6 °F 29.75 in SSW 10.0 mph 14.0 mph 90% 0.00 in 0.00 W/m2
06:40 33.2 °F 30.6 °F 29.75 in SSW 9.0 mph 15.0 mph 90% 0.00 in 0.00 W/m2
06:45 33.2 °F 30.6 °F 29.74 in South 3.0 mph 15.0 mph 90% 0.00 in 0.00 W/m2
06:50 33.2 °F 30.6 °F 29.75 in SSW 7.0 mph 13.0 mph 90% 0.00 in 0.00 W/m2
06:55 33.2 °F 30.6 °F 29.74 in South 5.0 mph 13.0 mph 90% 0.00 in 0.00 W/m2
07:00 33.2 °F 30.6 °F 29.75 in SSW 5.0 mph 10.0 mph 90% 0.00 in 0.00 W/m2
07:05 33.2 °F 30.6 °F 29.74 in South 10.0 mph 11.0 mph 90% 0.00 in 0.00 W/m2
07:10 33.3 °F 30.7 °F 29.74 in South 6.0 mph 11.0 mph 90% 0.00 in 0.00 W/m2
07:15 33.3 °F 30.7 °F 29.74 in SSE 10.0 mph 12.0 mph 90% 0.00 in 0.00 W/m2
07:20 33.3 °F 31.0 °F 29.74 in South 5.0 mph 12.0 mph 91% 0.00 in 0.00 W/m2
07:25 33.4 °F 30.8 °F 29.74 in South 3.0 mph 12.0 mph 90% 0.00 in 0.00 W/m2
07:30 33.4 °F 31.1 °F 29.74 in SSW 10.0 mph 14.0 mph 91% 0.00 in 0.00 W/m2
07:35 33.4 °F 30.8 °F 29.74 in SSW 10.0 mph 14.0 mph 90% 0.00 in 0.00 W/m2
07:40 33.4 °F 30.8 °F 29.75 in South 6.0 mph 14.0 mph 90% 0.00 in 0.00 W/m2
07:45 33.5 °F 31.2 °F 29.75 in SSW 6.0 mph 14.0 mph 91% 0.00 in 0.00 W/m2
07:50 33.5 °F 31.2 °F 29.75 in South 3.0 mph 12.0 mph 91% 0.00 in 0.00 W/m2
07:55 33.5 °F 31.2 °F 29.75 in SSW 6.0 mph 12.0 mph 91% 0.00 in 0.00 W/m2
08:00 33.5 °F 31.2 °F 29.74 in South 6.0 mph 12.0 mph 91% 0.00 in 0.00 W/m2
08:05 33.6 °F 31.3 °F 29.74 in South 5.0 mph 11.0 mph 91% 0.00 in 0.00 W/m2
08:10 33.6 °F 31.3 °F 29.74 in South 7.0 mph 12.0 mph 91% 0.00 in 0.00 W/m2
08:15 33.7 °F 31.1 °F 29.74 in South 12.0 mph 12.0 mph 90% 0.00 in 0.00 W/m2
08:20 33.8 °F 31.2 °F 29.74 in SW 11.0 mph 14.0 mph 90% 0.00 in 0.00 W/m2
08:25 33.8 °F 31.2 °F 29.74 in SSW 10.0 mph 15.0 mph 90% 0.00 in 0.00 W/m2
08:30 33.9 °F 31.3 °F 29.75 in SSW 8.0 mph 15.0 mph 90% 0.00 in 0.00 W/m2
08:35 34.0 °F 31.4 °F 29.75 in SW 12.0 mph 15.0 mph 90% 0.00 in 5.00 W/m2
08:40 34.0 °F 31.4 °F 29.74 in South 6.0 mph 15.0 mph 90% 0.00 in 7.00 W/m2
08:45 34.0 °F 31.4 °F 29.74 in SSW 11.0 mph 15.0 mph 90% 0.00 in 9.00 W/m2
08:50 34.0 °F 31.4 °F 29.75 in South 8.0 mph 15.0 mph 90% 0.00 in 12.00 W/m2
08:55 34.0 °F 31.4 °F 29.75 in SSW 8.0 mph 13.0 mph 90% 0.00 in 18.00 W/m2
09:00 34.1 °F 31.5 °F 29.75 in SSW 11.0 mph 15.0 mph 90% 0.00 in 19.00 W/m2
09:05 34.1 °F 31.5 °F 29.75 in SW 9.0 mph 15.0 mph 90% 0.00 in 30.00 W/m2
09:10 34.2 °F 31.6 °F 29.75 in SSE 13.0 mph 14.0 mph 90% 0.00 in 23.00 W/m2
09:15 34.2 °F 31.6 °F 29.74 in South 8.0 mph 14.0 mph 90% 0.00 in 46.00 W/m2
09:20 34.3 °F 31.9 °F 29.74 in SSW 10.0 mph 14.0 mph 91% 0.00 in 49.00 W/m2
09:25 34.4 °F 31.8 °F 29.74 in SSW 7.0 mph 13.0 mph 90% 0.00 in 58.00 W/m2
09:30 34.5 °F 31.9 °F 29.74 in SSW 9.0 mph 12.0 mph 90% 0.00 in 56.00 W/m2
09:35 34.5 °F 31.9 °F 29.74 in SSW 7.0 mph 15.0 mph 90% 0.00 in 56.00 W/m2
09:40 34.6 °F 32.0 °F 29.74 in SSW 8.0 mph 15.0 mph 90% 0.00 in 62.00 W/m2
09:45 34.7 °F 32.1 °F 29.74 in SSW 10.0 mph 14.0 mph 90% 0.00 in 58.00 W/m2
09:50 34.8 °F 32.2 °F 29.75 in SSW 10.0 mph 14.0 mph 90% 0.00 in 102.00 W/m2
09:55 34.9 °F 32.3 °F 29.75 in South 11.0 mph 14.0 mph 90% 0.00 in 81.00 W/m2
10:00 35.0 °F 32.4 °F 29.75 in SSW 6.0 mph 15.0 mph 90% 0.00 in 100.00 W/m2
10:05 35.1 °F 32.5 °F 29.75 in SW 7.0 mph 15.0 mph 90% 0.00 in 90.00 W/m2
10:10 35.2 °F 32.6 °F 29.75 in SSE 9.0 mph 14.0 mph 90% 0.00 in 95.00 W/m2
10:15 35.3 °F 32.7 °F 29.75 in South 6.0 mph 14.0 mph 90% 0.00 in 116.00 W/m2
10:20 35.5 °F 32.6 °F 29.75 in South 1.0 mph 11.0 mph 89% 0.00 in 114.00 W/m2
10:25 35.7 °F 32.8 °F 29.75 in South 4.0 mph 10.0 mph 89% 0.00 in 169.00 W/m2
10:30 36.0 °F 33.1 °F 29.75 in South 9.0 mph 13.0 mph 89% 0.00 in 155.00 W/m2
10:35 36.4 °F 33.5 °F 29.75 in SSW 7.0 mph 13.0 mph 89% 0.00 in 188.00 W/m2
10:40 36.7 °F 33.5 °F 29.75 in SSW 6.0 mph 15.0 mph 88% 0.00 in 243.00 W/m2
10:45 37.1 °F 33.6 °F 29.75 in South 7.0 mph 15.0 mph 87% 0.00 in 153.00 W/m2
10:50 37.0 °F 33.2 °F 29.75 in SSW 9.0 mph 14.0 mph 86% 0.00 in 127.00 W/m2
10:55 37.0 °F 33.2 °F 29.76 in SSW 9.0 mph 14.0 mph 86% 0.00 in 274.00 W/m2
11:00 37.2 °F 33.4 °F 29.76 in SW 6.0 mph 14.0 mph 86% 0.00 in 461.00 W/m2
11:05 37.8 °F 33.4 °F 29.75 in SSW 10.0 mph 14.0 mph 84% 0.00 in 357.00 W/m2
11:10 38.2 °F 33.8 °F 29.75 in SW 12.0 mph 14.0 mph 84% 0.00 in 411.00 W/m2
11:15 38.4 °F 33.7 °F 29.75 in SW 12.0 mph 14.0 mph 83% 0.00 in 452.00 W/m2
11:20 38.7 °F 34.0 °F 29.76 in South 6.0 mph 14.0 mph 83% 0.00 in 443.00 W/m2
11:25 39.1 °F 34.1 °F 29.76 in SW 5.0 mph 14.0 mph 82% 0.00 in 443.00 W/m2
11:30 39.6 °F 34.2 °F 29.76 in South 9.0 mph 14.0 mph 81% 0.00 in 448.00 W/m2
11:35 40.1 °F 34.4 °F 29.76 in South 10.0 mph 13.0 mph 80% 0.00 in 478.00 W/m2
11:40 40.8 °F 34.8 °F 29.76 in SSE 9.0 mph 13.0 mph 79% 0.00 in 490.00 W/m2
11:45 41.2 °F 34.9 °F 29.76 in SSW 6.0 mph 12.0 mph 78% 0.00 in 494.00 W/m2
11:50 42.1 °F 35.4 °F 29.76 in South 9.0 mph 13.0 mph 77% 0.00 in 462.00 W/m2
11:55 42.7 °F 35.7 °F 29.76 in SSW 10.0 mph 14.0 mph 76% 0.00 in 452.00 W/m2
12:00 42.7 °F 35.3 °F 29.76 in SW 11.0 mph 15.0 mph 75% 0.00 in 445.00 W/m2
12:05 42.9 °F 35.5 °F 29.76 in SW 9.0 mph 15.0 mph 75% 0.00 in 446.00 W/m2
12:10 42.7 °F 35.0 °F 29.76 in SSW 8.0 mph 14.0 mph 74% 0.00 in 455.00 W/m2
12:15 43.4 °F 35.0 °F 29.76 in SW 6.0 mph 14.0 mph 72% 0.00 in 468.00 W/m2
12:20 43.8 °F 35.4 °F 29.76 in South 10.0 mph 14.0 mph 72% 0.00 in 455.00 W/m2
12:25 44.6 °F 35.4 °F 29.76 in SSW 6.0 mph 14.0 mph 70% 0.00 in 438.00 W/m2
12:30 45.1 °F 35.5 °F 29.76 in SW 8.0 mph 14.0 mph 69% 0.00 in 446.00 W/m2
12:35 45.6 °F 35.6 °F 29.76 in SSE 5.0 mph 14.0 mph 68% 0.00 in 482.00 W/m2
12:40 46.4 °F 35.3 °F 29.76 in SSW 6.0 mph 14.0 mph 65% 0.00 in 563.00 W/m2
12:45 46.4 °F 34.5 °F 29.76 in SSW 3.0 mph 11.0 mph 63% 0.00 in 628.00 W/m2
12:50 47.0 °F 34.6 °F 29.76 in SW 7.0 mph 11.0 mph 62% 0.00 in 650.00 W/m2
12:55 46.9 °F 34.1 °F 29.76 in SW 3.0 mph 13.0 mph 61% 0.00 in 659.00 W/m2
13:00 47.1 °F 33.9 °F 29.76 in West 8.0 mph 13.0 mph 60% 0.00 in 664.00 W/m2
13:05 47.0 °F 33.4 °F 29.76 in SSW 6.0 mph 13.0 mph 59% 0.00 in 675.00 W/m2
13:10 47.6 °F 34.0 °F 29.76 in South 7.0 mph 13.0 mph 59% 0.00 in 682.00 W/m2
13:15 48.2 °F 33.7 °F 29.76 in WSW 13.0 mph 14.0 mph 57% 0.00 in 689.00 W/m2
13:20 48.5 °F 33.5 °F 29.75 in WSW 13.0 mph 14.0 mph 56% 0.00 in 700.00 W/m2
13:25 48.1 °F 33.1 °F 29.75 in WSW 8.0 mph 16.0 mph 56% 0.00 in 708.00 W/m2
13:30 48.4 °F 34.3 °F 29.75 in SSW 5.0 mph 16.0 mph 58% 0.00 in 714.00 W/m2
13:35 49.2 °F 33.7 °F 29.75 in South 6.0 mph 16.0 mph 55% 0.00 in 717.00 W/m2
13:40 50.1 °F 34.5 °F 29.75 in SSW 6.0 mph 16.0 mph 55% 0.00 in 726.00 W/m2
13:45 51.1 °F 34.5 °F 29.75 in WSW 10.0 mph 11.0 mph 53% 0.00 in 731.00 W/m2
13:50 50.7 °F 34.6 °F 29.75 in WNW 3.0 mph 12.0 mph 54% 0.00 in 735.00 W/m2
13:55 51.4 °F 34.8 °F 29.75 in SW 9.0 mph 12.0 mph 53% 0.00 in 738.00 W/m2
14:00 51.9 °F 33.8 °F 29.75 in SW 9.0 mph 11.0 mph 50% 0.00 in 744.00 W/m2
14:05 51.9 °F 34.8 °F 29.74 in SSW 9.0 mph 13.0 mph 52% 0.00 in 745.00 W/m2
14:10 52.7 °F 35.1 °F 29.74 in South 3.0 mph 13.0 mph 51% 0.00 in 751.00 W/m2
14:15 52.9 °F 32.7 °F 29.74 in WSW 11.0 mph 14.0 mph 46% 0.00 in 756.00 W/m2
14:20 52.6 °F 32.4 °F 29.74 in SW 6.0 mph 15.0 mph 46% 0.00 in 759.00 W/m2
14:25 53.2 °F 33.5 °F 29.74 in WSW 7.0 mph 15.0 mph 47% 0.00 in 761.00 W/m2
14:30 53.2 °F 31.3 °F 29.74 in WNW 11.0 mph 13.0 mph 43% 0.00 in 765.00 W/m2
14:35 53.0 °F 31.6 °F 29.74 in West 12.0 mph 13.0 mph 44% 0.00 in 765.00 W/m2
14:40 53.6 °F 32.2 °F 29.74 in SW 7.0 mph 16.0 mph 44% 0.00 in 766.00 W/m2
14:45 53.7 °F 31.7 °F 29.74 in WNW 5.0 mph 16.0 mph 43% 0.00 in 768.00 W/m2
14:50 53.9 °F 30.7 °F 29.73 in West 7.0 mph 15.0 mph 41% 0.00 in 770.00 W/m2
14:55 54.1 °F 29.7 °F 29.73 in SW 9.0 mph 15.0 mph 39% 0.00 in 775.00 W/m2
15:00 54.6 °F 28.8 °F 29.73 in WSW 9.0 mph 16.0 mph 37% 0.00 in 772.00 W/m2
15:05 54.7 °F 28.2 °F 29.73 in WSW 15.0 mph 17.0 mph 36% 0.00 in 791.00 W/m2
15:10 54.6 °F 27.5 °F 29.73 in SW 7.0 mph 17.0 mph 35% 0.00 in 851.00 W/m2
15:15 54.1 °F 27.7 °F 29.73 in West 6.0 mph 17.0 mph 36% 0.00 in 798.00 W/m2
15:20 54.8 °F 26.2 °F 29.72 in WSW 3.0 mph 17.0 mph 33% 0.00 in 777.00 W/m2
15:25 54.6 °F 23.7 °F 29.72 in WNW 4.0 mph 16.0 mph 30% 0.00 in 765.00 W/m2
15:30 54.6 °F 25.3 °F 29.72 in WNW 8.0 mph 16.0 mph 32% 0.00 in 763.00 W/m2
15:35 55.4 °F 25.2 °F 29.72 in West 11.0 mph 21.0 mph 31% 0.00 in 759.00 W/m2
15:40 55.5 °F 26.8 °F 29.71 in NW 3.0 mph 21.0 mph 33% 0.00 in 752.00 W/m2
15:45 55.7 °F 25.5 °F 29.71 in West 10.0 mph 21.0 mph 31% 0.00 in 756.00 W/m2
15:50 55.4 °F 24.4 °F 29.71 in West 7.0 mph 21.0 mph 30% 0.00 in 745.00 W/m2
15:55 55.6 °F 25.4 °F 29.71 in West 9.0 mph 18.0 mph 31% 0.00 in 759.00 W/m2
16:00 55.3 °F 23.5 °F 29.71 in WNW 7.0 mph 18.0 mph 29% 0.00 in 779.00 W/m2
16:05 55.0 °F 26.4 °F 29.71 in NW 7.0 mph 16.0 mph 33% 0.00 in 742.00 W/m2
16:10 56.3 °F 26.8 °F 29.70 in West 17.0 mph 21.0 mph 32% 0.00 in 729.00 W/m2
16:15 55.7 °F 24.7 °F 29.70 in West 13.0 mph 21.0 mph 30% 0.00 in 726.00 W/m2
16:20 55.9 °F 24.9 °F 29.70 in NW 8.0 mph 20.0 mph 30% 0.00 in 719.00 W/m2
16:25 55.7 °F 23.9 °F 29.70 in SW 7.0 mph 20.0 mph 29% 0.00 in 710.00 W/m2
16:30 56.5 °F 26.9 °F 29.70 in WSW 9.0 mph 20.0 mph 32% 0.00 in 703.00 W/m2
16:35 56.8 °F 25.7 °F 29.70 in NW 4.0 mph 18.0 mph 30% 0.00 in 707.00 W/m2
16:40 55.9 °F 24.9 °F 29.70 in West 8.0 mph 18.0 mph 30% 0.00 in 717.00 W/m2
16:45 56.3 °F 25.2 °F 29.70 in WNW 11.0 mph 15.0 mph 30% 0.00 in 703.00 W/m2
16:50 56.1 °F 24.2 °F 29.70 in NW 7.0 mph 17.0 mph 29% 0.00 in 687.00 W/m2
16:55 55.8 °F 24.0 °F 29.70 in WSW 3.0 mph 17.0 mph 29% 0.00 in 687.00 W/m2
17:00 56.3 °F 25.2 °F 29.70 in West 10.0 mph 16.0 mph 30% 0.00 in 703.00 W/m2
17:05 56.7 °F 24.8 °F 29.70 in WNW 11.0 mph 16.0 mph 29% 0.00 in 717.00 W/m2
17:10 56.1 °F 24.2 °F 29.70 in NNW 2.0 mph 15.0 mph 29% 0.00 in 178.00 W/m2
17:15 55.9 °F 24.9 °F 29.70 in NW 4.0 mph 15.0 mph 30% 0.00 in 694.00 W/m2
17:20 56.9 °F 24.9 °F 29.70 in WNW 11.0 mph 16.0 mph 29% 0.00 in 664.00 W/m2
17:25 56.2 °F 24.3 °F 29.70 in West 14.0 mph 18.0 mph 29% 0.00 in 163.00 W/m2
17:30 56.1 °F 25.1 °F 29.70 in West 7.0 mph 18.0 mph 30% 0.00 in 654.00 W/m2
17:35 56.5 °F 23.7 °F 29.70 in North 3.0 mph 18.0 mph 28% 0.00 in 642.00 W/m2
17:40 56.9 °F 24.9 °F 29.70 in West 10.0 mph 18.0 mph 29% 0.00 in 631.00 W/m2
17:45 55.8 °F 27.8 °F 29.69 in West 12.0 mph 19.0 mph 34% 0.00 in 156.00 W/m2
17:50 56.2 °F 28.2 °F 29.70 in NNW 10.0 mph 19.0 mph 34% 0.00 in 631.00 W/m2
17:55 57.5 °F 29.3 °F 29.70 in NNW 12.0 mph 19.0 mph 34% 0.00 in 656.00 W/m2
18:00 57.7 °F 28.8 °F 29.69 in North 10.0 mph 19.0 mph 33% 0.00 in 545.00 W/m2
18:05 56.6 °F 27.8 °F 29.69 in NNW 9.0 mph 16.0 mph 33% 0.00 in 174.00 W/m2
18:10 55.7 °F 27.0 °F 29.69 in NW 9.0 mph 16.0 mph 33% 0.00 in 529.00 W/m2
18:15 56.2 °F 28.9 °F 29.69 in NW 9.0 mph 16.0 mph 35% 0.00 in 497.00 W/m2
18:20 56.6 °F 27.8 °F 29.69 in NNW 12.0 mph 14.0 mph 33% 0.00 in 475.00 W/m2
18:25 56.1 °F 27.4 °F 29.69 in NW 9.0 mph 17.0 mph 33% 0.00 in 457.00 W/m2
18:30 56.5 °F 28.4 °F 29.69 in North 11.0 mph 17.0 mph 34% 0.00 in 439.00 W/m2
18:35 56.7 °F 30.7 °F 29.70 in North 11.0 mph 16.0 mph 37% 0.00 in 422.00 W/m2
18:40 56.8 °F 30.1 °F 29.70 in North 17.0 mph 21.0 mph 36% 0.00 in 411.00 W/m2
18:45 56.7 °F 30.0 °F 29.70 in NE 10.0 mph 21.0 mph 36% 0.00 in 390.00 W/m2
18:50 56.9 °F 30.2 °F 29.70 in North 13.0 mph 21.0 mph 36% 0.00 in 380.00 W/m2
18:55 56.9 °F 29.5 °F 29.70 in NE 7.0 mph 21.0 mph 35% 0.00 in 364.00 W/m2
19:00 56.9 °F 30.2 °F 29.71 in North 10.0 mph 17.0 mph 36% 0.00 in 320.00 W/m2
19:05 56.8 °F 29.4 °F 29.71 in NNE 11.0 mph 18.0 mph 35% 0.00 in 327.00 W/m2
19:10 56.5 °F 29.1 °F 29.71 in North 11.0 mph 18.0 mph 35% 0.00 in 318.00 W/m2
19:15 56.5 °F 29.1 °F 29.71 in NNW 14.0 mph 18.0 mph 35% 0.00 in 267.00 W/m2
19:20 56.1 °F 28.8 °F 29.71 in North 12.0 mph 18.0 mph 35% 0.00 in 281.00 W/m2
19:25 55.3 °F 28.1 °F 29.71 in North 8.0 mph 18.0 mph 35% 0.00 in 265.00 W/m2
19:30 55.5 °F 29.0 °F 29.71 in NNW 6.0 mph 18.0 mph 36% 0.00 in 251.00 W/m2
19:35 55.1 °F 27.9 °F 29.72 in North 11.0 mph 18.0 mph 35% 0.00 in 142.00 W/m2
19:40 54.7 °F 28.9 °F 29.72 in North 11.0 mph 14.0 mph 37% 0.00 in 209.00 W/m2
19:45 54.4 °F 28.6 °F 29.72 in NNE 12.0 mph 14.0 mph 37% 0.00 in 67.00 W/m2
19:50 53.7 °F 28.0 °F 29.72 in North 10.0 mph 15.0 mph 37% 0.00 in 76.00 W/m2
19:55 53.1 °F 28.8 °F 29.72 in North 11.0 mph 15.0 mph 39% 0.00 in 88.00 W/m2
20:00 52.8 °F 29.1 °F 29.72 in NNE 9.0 mph 12.0 mph 40% 0.00 in 91.00 W/m2
20:05 52.9 °F 29.2 °F 29.72 in NNE 4.0 mph 12.0 mph 40% 0.00 in 105.00 W/m2
20:10 52.9 °F 29.2 °F 29.73 in NNE 6.0 mph 12.0 mph 40% 0.00 in 88.00 W/m2
20:15 52.7 °F 29.0 °F 29.73 in NNE 6.0 mph 12.0 mph 40% 0.00 in 63.00 W/m2
20:20 52.3 °F 29.3 °F 29.73 in NNE 8.0 mph 12.0 mph 41% 0.00 in 46.00 W/m2
20:25 51.9 °F 29.5 °F 29.73 in NNE 8.0 mph 12.0 mph 42% 0.00 in 42.00 W/m2
20:30 51.4 °F 29.1 °F 29.73 in NE 5.0 mph 13.0 mph 42% 0.00 in 39.00 W/m2
20:35 51.1 °F 28.8 °F 29.73 in NNE 6.0 mph 13.0 mph 42% 0.00 in 37.00 W/m2
20:40 50.6 °F 28.3 °F 29.73 in NE 4.0 mph 13.0 mph 42% 0.00 in 28.00 W/m2
20:45 50.2 °F 28.5 °F 29.73 in NE 4.0 mph 13.0 mph 43% 0.00 in 23.00 W/m2
20:50 49.7 °F 28.1 °F 29.73 in NE 5.0 mph 6.0 mph 43% 0.00 in 18.00 W/m2
20:55 49.2 °F 28.2 °F 29.74 in NNE 6.0 mph 8.0 mph 44% 0.00 in 14.00 W/m2
21:00 48.4 °F 27.5 °F 29.74 in NE 7.0 mph 10.0 mph 44% 0.00 in 11.00 W/m2
21:05 47.8 °F 27.5 °F 29.74 in NNE 8.0 mph 10.0 mph 45% 0.00 in 7.00 W/m2
21:10 47.4 °F 27.6 °F 29.74 in NE 6.0 mph 10.0 mph 46% 0.00 in 5.00 W/m2
21:15 46.9 °F 27.7 °F 29.74 in NE 7.0 mph 10.0 mph 47% 0.00 in 0.00 W/m2
21:20 46.3 °F 27.7 °F 29.74 in NE 9.0 mph 10.0 mph 48% 0.00 in 0.00 W/m2
21:25 45.9 °F 27.3 °F 29.74 in NE 6.0 mph 9.0 mph 48% 0.00 in 0.00 W/m2
21:30 45.3 °F 27.2 °F 29.75 in ENE 5.0 mph 9.0 mph 49% 0.00 in 0.00 W/m2
21:35 45.1 °F 27.6 °F 29.75 in ENE 4.0 mph 9.0 mph 50% 0.00 in 0.00 W/m2
21:40 44.9 °F 27.8 °F 29.75 in ENE 6.0 mph 9.0 mph 51% 0.00 in 0.00 W/m2
21:45 44.5 °F 28.4 °F 29.75 in ENE 6.0 mph 9.0 mph 53% 0.00 in 0.00 W/m2
21:50 43.9 °F 28.3 °F 29.75 in NE 6.0 mph 9.0 mph 54% 0.00 in 0.00 W/m2
21:55 43.5 °F 28.4 °F 29.76 in ENE 8.0 mph 9.0 mph 55% 0.00 in 0.00 W/m2
22:00 43.3 °F 28.6 °F 29.76 in ENE 4.0 mph 9.0 mph 56% 0.00 in 0.00 W/m2
22:05 43.0 °F 28.8 °F 29.76 in ENE 5.0 mph 10.0 mph 57% 0.00 in 0.00 W/m2
22:10 42.9 °F 28.7 °F 29.76 in ENE 6.0 mph 10.0 mph 57% 0.00 in 0.00 W/m2
22:15 42.9 °F 29.1 °F 29.76 in NE 6.0 mph 10.0 mph 58% 0.00 in 0.00 W/m2
22:20 42.8 °F 29.0 °F 29.77 in NE 7.0 mph 10.0 mph 58% 0.00 in 0.00 W/m2
22:25 42.8 °F 28.6 °F 29.77 in ENE 7.0 mph 10.0 mph 57% 0.00 in 0.00 W/m2
22:30 43.2 °F 29.0 °F 29.77 in ENE 6.0 mph 11.0 mph 57% 0.00 in 0.00 W/m2
22:35 43.4 °F 28.7 °F 29.77 in ENE 8.0 mph 11.0 mph 56% 0.00 in 0.00 W/m2
22:40 43.4 °F 28.7 °F 29.77 in ENE 9.0 mph 12.0 mph 56% 0.00 in 0.00 W/m2
22:45 43.4 °F 28.7 °F 29.77 in East 11.0 mph 14.0 mph 56% 0.00 in 0.00 W/m2
22:50 43.4 °F 28.7 °F 29.77 in ENE 8.0 mph 14.0 mph 56% 0.00 in 0.00 W/m2
22:55 43.4 °F 28.7 °F 29.77 in ENE 6.0 mph 14.0 mph 56% 0.00 in 0.00 W/m2
23:00 43.4 °F 28.7 °F 29.77 in ENE 11.0 mph 14.0 mph 56% 0.00 in 0.00 W/m2
23:05 43.4 °F 29.2 °F 29.77 in ENE 8.0 mph 12.0 mph 57% 0.00 in 0.00 W/m2
23:10 43.4 °F 29.2 °F 29.77 in ENE 5.0 mph 12.0 mph 57% 0.00 in 0.00 W/m2
23:15 43.3 °F 29.5 °F 29.77 in ENE 5.0 mph 12.0 mph 58% 0.00 in 0.00 W/m2
23:20 43.3 °F 29.5 °F 29.77 in East 8.0 mph 12.0 mph 58% 0.00 in 0.00 W/m2
23:25 43.4 °F 29.6 °F 29.78 in ENE 10.0 mph 13.0 mph 58% 0.00 in 0.00 W/m2
23:30 43.3 °F 29.9 °F 29.78 in ENE 10.0 mph 13.0 mph 59% 0.00 in 0.00 W/m2
23:35 43.3 °F 29.9 °F 29.77 in East 8.0 mph 12.0 mph 59% 0.00 in 0.00 W/m2
23:40 43.2 °F 30.2 °F 29.78 in East 8.0 mph 13.0 mph 60% 0.00 in 0.00 W/m2
23:45 43.3 °F 30.3 °F 29.78 in ENE 9.0 mph 13.0 mph 60% 0.00 in 0.00 W/m2
23:50 43.1 °F 30.1 °F 29.78 in ENE 8.0 mph 13.0 mph 60% 0.00 in 0.00 W/m2
23:55 43.0 °F 30.1 °F 29.78 in ENE 10.0 mph 12.0 mph 60% 0.00 in 0.00 W/m2
Bismarck, North Dakota, USA
Compliments of Weather Underground - 4 mb